Time;durP1;ratioP1;P1;durP2;ratioP2;P2;SDS_P1;SDS_P2;PMS_P1;PMS_P2;Temp;Humidity;BMP_temperature;BMP_pressure;BME280_temperature;BME280_humidity;BME280_pressure;Samples;Min_cycle;Max_cycle;Signal;HPM_P1;HPM_P2
2021/05/02 00:02:13;;;;;;;27.20;21.57;;;;;;;;;;5067119;28;20220;-56
2021/05/02 00:04:40;;;;;;;25.60;21.50;;;;;;;;;;5072021;28;20185;-53
2021/05/02 00:07:07;;;;;;;25.93;21.87;;;;;;;;;;5071260;28;20192;-53
2021/05/02 00:09:35;;;;;;;25.63;21.60;;;;;;;;;;5068519;28;20197;-55
2021/05/02 00:12:02;;;;;;;24.83;20.33;;;;;;;;;;5072227;28;20631;-53
2021/05/02 00:14:27;;;;;;;23.70;19.77;;;;;;;;;;5070389;28;20190;-53
2021/05/02 00:16:56;;;;;;;23.97;20.77;;;;;;;;;;5043195;28;20173;-53
2021/05/02 00:19:21;;;;;;;24.77;20.43;;;;;;;;;;5069792;28;20239;-55
2021/05/02 00:21:49;;;;;;;24.53;20.13;;;;;;;;;;5043108;28;20233;-54
2021/05/02 00:24:18;;;;;;;31.37;21.10;;;;;;;;;;5067831;28;20184;-54
2021/05/02 00:26:48;;;;;;;24.10;19.63;;;;;;;;;;5069187;28;20259;-54
2021/05/02 00:29:14;;;;;;;22.60;19.17;;;;;;;;;;5061103;28;20308;-54
2021/05/02 00:31:42;;;;;;;22.77;19.43;;;;;;;;;;5064951;28;20283;-55
2021/05/02 00:34:09;;;;;;;24.47;19.73;;;;;;;;;;5064514;28;20630;-54
2021/05/02 00:36:34;;;;;;;23.17;19.87;;;;;;;;;;5042315;28;20244;-55
2021/05/02 00:39:00;;;;;;;25.77;20.43;;;;;;;;;;5069424;28;20189;-54
2021/05/02 00:41:29;;;;;;;21.87;19.50;;;;;;;;;;5058686;28;20217;-55
2021/05/02 00:43:56;;;;;;;22.80;20.33;;;;;;;;;;5065454;28;20185;-55
2021/05/02 00:46:27;;;;;;;22.40;18.97;;;;;;;;;;5060416;28;20740;-53
2021/05/02 00:49:19;;;;;;;23.27;19.33;;;;;;;;;;5049272;28;20178;-54
2021/05/02 00:51:48;;;;;;;23.17;20.10;;;;;;;;;;5030112;28;20934;-62
2021/05/02 00:54:16;;;;;;;21.50;19.20;;;;;;;;;;5056651;28;20197;-54
2021/05/02 00:56:58;;;;;;;22.10;19.20;;;;;;;;;;5065277;28;20590;-53
2021/05/02 00:59:32;;;;;;;21.80;18.90;;;;;;;;;;5063605;28;20181;-53
2021/05/02 01:02:01;;;;;;;22.60;19.63;;;;;;;;;;5062891;28;20227;-55
2021/05/02 01:04:29;;;;;;;22.30;20.00;;;;;;;;;;5050079;28;20213;-55
2021/05/02 01:07:01;;;;;;;24.27;19.77;;;;;;;;;;5062959;28;20208;-55
2021/05/02 01:09:35;;;;;;;20.50;17.80;;;;;;;;;;5058805;28;20193;-55
2021/05/02 01:12:02;;;;;;;20.43;18.27;;;;;;;;;;5058206;28;20212;-52
2021/05/02 01:14:30;;;;;;;22.13;18.13;;;;;;;;;;5047105;28;20919;-54
2021/05/02 01:16:58;;;;;;;22.43;17.30;;;;;;;;;;5060018;28;20177;-54
2021/05/02 01:19:26;;;;;;;18.13;16.00;;;;;;;;;;5065095;28;20259;-54
2021/05/02 01:21:59;;;;;;;17.37;15.43;;;;;;;;;;5063221;28;20210;-53
2021/05/02 01:24:25;;;;;;;18.50;15.93;;;;;;;;;;5064752;28;20224;-55
2021/05/02 01:26:52;;;;;;;17.00;14.90;;;;;;;;;;5047040;28;20234;-55
2021/05/02 01:29:22;;;;;;;16.23;13.93;;;;;;;;;;5045658;28;20277;-54
2021/05/02 01:31:50;;;;;;;19.17;13.90;;;;;;;;;;5063509;28;20208;-54
2021/05/02 01:34:15;;;;;;;17.13;14.17;;;;;;;;;;5068288;28;20658;-53
2021/05/02 01:36:41;;;;;;;17.17;13.80;;;;;;;;;;5064893;28;20193;-53
2021/05/02 01:39:07;;;;;;;17.70;13.73;;;;;;;;;;5066901;28;20197;-53
2021/05/02 01:41:32;;;;;;;15.23;13.40;;;;;;;;;;5048173;28;20213;-54
2021/05/02 01:44:00;;;;;;;17.20;14.33;;;;;;;;;;5067463;28;20184;-54
2021/05/02 01:46:33;;;;;;;15.57;13.97;;;;;;;;;;5062717;28;20657;-53
2021/05/02 01:48:59;;;;;;;14.73;13.10;;;;;;;;;;5064857;28;20813;-53
2021/05/02 01:51:31;;;;;;;17.30;13.73;;;;;;;;;;5063709;28;20258;-53
2021/05/02 01:53:59;;;;;;;16.80;13.43;;;;;;;;;;5062367;28;20264;-53
2021/05/02 01:56:27;;;;;;;17.07;13.63;;;;;;;;;;5065588;28;20185;-53
2021/05/02 01:58:52;;;;;;;15.80;13.67;;;;;;;;;;5060294;28;20239;-53
2021/05/02 02:01:19;;;;;;;16.60;13.80;;;;;;;;;;5065571;28;20205;-55
2021/05/02 02:03:45;;;;;;;15.77;13.30;;;;;;;;;;5061173;28;20173;-53
2021/05/02 02:06:12;;;;;;;15.63;13.50;;;;;;;;;;5066876;28;20182;-55
2021/05/02 02:08:37;;;;;;;15.23;13.63;;;;;;;;;;5061546;28;20227;-55
2021/05/02 02:11:02;;;;;;;16.90;14.60;;;;;;;;;;5062894;28;20993;-54
2021/05/02 02:13:30;;;;;;;15.90;14.13;;;;;;;;;;5060322;28;20642;-52
2021/05/02 02:15:56;;;;;;;16.33;13.83;;;;;;;;;;5063406;28;20191;-54
2021/05/02 02:18:21;;;;;;;17.23;14.53;;;;;;;;;;5061720;28;20265;-53
2021/05/02 02:20:50;;;;;;;15.13;13.53;;;;;;;;;;5067210;28;20197;-53
2021/05/02 02:23:20;;;;;;;18.90;14.60;;;;;;;;;;5056790;28;20177;-52
2021/05/02 02:25:49;;;;;;;16.93;15.13;;;;;;;;;;5047295;28;20300;-52
2021/05/02 02:28:15;;;;;;;18.20;13.90;;;;;;;;;;5059666;28;20287;-53
2021/05/02 02:30:43;;;;;;;16.53;14.83;;;;;;;;;;5061830;28;20193;-54
2021/05/02 02:33:08;;;;;;;18.20;15.00;;;;;;;;;;5087311;22;20228;-52
2021/05/02 02:35:37;;;;;;;18.17;14.87;;;;;;;;;;5087693;28;20206;-53
2021/05/02 02:38:05;;;;;;;18.07;14.67;;;;;;;;;;5076187;28;20192;-53
2021/05/02 02:40:36;;;;;;;18.23;14.87;;;;;;;;;;5064069;28;20187;-53
2021/05/02 02:43:05;;;;;;;17.67;14.97;;;;;;;;;;5081600;28;20312;-54
2021/05/02 02:45:34;;;;;;;18.17;15.57;;;;;;;;;;5085504;28;20176;-53
2021/05/02 02:48:01;;;;;;;18.33;15.23;;;;;;;;;;5077796;28;20192;-54
2021/05/02 02:50:30;;;;;;;18.13;15.70;;;;;;;;;;5079544;28;20188;-55
2021/05/02 02:52:56;;;;;;;19.10;15.57;;;;;;;;;;5082396;28;20576;-54
2021/05/02 02:55:22;;;;;;;20.23;16.00;;;;;;;;;;5080702;28;20694;-53
2021/05/02 02:58:03;;;;;;;17.90;15.47;;;;;;;;;;5086414;28;20213;-52
2021/05/02 03:00:39;;;;;;;18.90;15.93;;;;;;;;;;5079562;28;20259;-55
2021/05/02 03:03:08;;;;;;;18.70;15.53;;;;;;;;;;5083206;28;20227;-54
2021/05/02 03:05:38;;;;;;;19.70;15.20;;;;;;;;;;5076253;28;20653;-55
2021/05/02 03:08:04;;;;;;;19.07;16.37;;;;;;;;;;5083996;28;20168;-54
2021/05/02 03:10:31;;;;;;;18.67;16.13;;;;;;;;;;5085722;28;20180;-54
2021/05/02 03:12:58;;;;;;;20.13;17.27;;;;;;;;;;5086232;28;20219;-53
2021/05/02 03:15:26;;;;;;;21.47;18.17;;;;;;;;;;5081181;28;20177;-52
2021/05/02 03:17:59;;;;;;;21.73;17.77;;;;;;;;;;5086895;28;20334;-55
2021/05/02 03:20:29;;;;;;;24.13;18.93;;;;;;;;;;5084987;28;20173;-55
2021/05/02 03:22:56;;;;;;;24.03;19.47;;;;;;;;;;5082214;28;20211;-54
2021/05/02 03:25:23;;;;;;;21.63;18.97;;;;;;;;;;5061803;28;20776;-53
2021/05/02 03:27:56;;;;;;;24.23;19.27;;;;;;;;;;5082755;28;20193;-55
2021/05/02 03:30:27;;;;;;;23.23;18.83;;;;;;;;;;5086659;28;20645;-55
2021/05/02 03:32:53;;;;;;;23.83;18.97;;;;;;;;;;5084233;28;20273;-53
2021/05/02 03:35:19;;;;;;;24.33;20.33;;;;;;;;;;5082148;28;20185;-54
2021/05/02 03:37:47;;;;;;;23.07;18.97;;;;;;;;;;5067939;28;20199;-55
2021/05/02 03:40:13;;;;;;;25.57;20.40;;;;;;;;;;5086176;28;20795;-53
2021/05/02 03:42:40;;;;;;;26.17;20.27;;;;;;;;;;5068612;28;20298;-53
2021/05/02 03:45:06;;;;;;;24.93;20.03;;;;;;;;;;5084939;28;20679;-54
2021/05/02 03:47:31;;;;;;;23.90;19.10;;;;;;;;;;5086391;28;20173;-55
2021/05/02 03:49:56;;;;;;;25.87;21.83;;;;;;;;;;5084687;28;20177;-55
2021/05/02 03:52:24;;;;;;;27.60;22.03;;;;;;;;;;5064158;28;20696;-53
2021/05/02 03:54:54;;;;;;;27.63;20.87;;;;;;;;;;5086109;28;20184;-54
2021/05/02 03:57:23;;;;;;;26.57;20.33;;;;;;;;;;5081211;28;20990;-52
2021/05/02 03:59:50;;;;;;;31.87;22.33;;;;;;;;;;5089192;28;20192;-53
2021/05/02 04:02:17;;;;;;;27.03;21.50;;;;;;;;;;5083098;28;20572;-53
2021/05/02 04:04:44;;;;;;;27.70;22.27;;;;;;;;;;5087612;28;20726;-54
2021/05/02 04:07:11;;;;;;;28.03;23.23;;;;;;;;;;5086295;28;20188;-54
2021/05/02 04:09:42;;;;;;;29.07;23.57;;;;;;;;;;5071923;28;20184;-52
2021/05/02 04:12:07;;;;;;;29.77;23.40;;;;;;;;;;5086375;28;20204;-54
2021/05/02 04:14:33;;;;;;;29.27;23.73;;;;;;;;;;5083928;28;20197;-54
2021/05/02 04:17:05;;;;;;;31.83;23.87;;;;;;;;;;5085218;28;20283;-53
2021/05/02 04:19:33;;;;;;;30.17;23.30;;;;;;;;;;5088604;28;20280;-53
2021/05/02 04:21:59;;;;;;;30.10;23.20;;;;;;;;;;5070917;28;20722;-54
2021/05/02 04:24:24;;;;;;;27.77;23.57;;;;;;;;;;5086125;28;20173;-53
2021/05/02 04:26:52;;;;;;;29.23;23.90;;;;;;;;;;5085929;28;20172;-54
2021/05/02 04:29:21;;;;;;;28.77;23.57;;;;;;;;;;5089482;28;20784;-53
2021/05/02 04:31:51;;;;;;;29.63;24.33;;;;;;;;;;5069761;28;20723;-53
2021/05/02 04:34:18;;;;;;;31.73;24.10;;;;;;;;;;5084268;28;20222;-53
2021/05/02 04:36:48;;;;;;;30.23;22.77;;;;;;;;;;5086900;28;20198;-52
2021/05/02 04:39:16;;;;;;;29.80;23.00;;;;;;;;;;5085010;28;20184;-52
2021/05/02 04:41:43;;;;;;;29.40;23.93;;;;;;;;;;5089612;28;20208;-55
2021/05/02 04:44:11;;;;;;;35.00;23.20;;;;;;;;;;5084679;28;20187;-52
2021/05/02 04:46:39;;;;;;;29.37;24.47;;;;;;;;;;5086545;28;20263;-53
2021/05/02 04:49:10;;;;;;;30.90;24.03;;;;;;;;;;5070128;28;20192;-54
2021/05/02 04:51:36;;;;;;;29.90;23.53;;;;;;;;;;5089484;28;20192;-53
2021/05/02 04:54:06;;;;;;;32.00;23.73;;;;;;;;;;5089354;28;20196;-54
2021/05/02 04:56:33;;;;;;;29.77;22.83;;;;;;;;;;5069937;28;20191;-54
2021/05/02 04:59:01;;;;;;;30.57;24.57;;;;;;;;;;5081527;28;20251;-54
2021/05/02 05:01:28;;;;;;;29.50;23.57;;;;;;;;;;5066174;28;20217;-55
2021/05/02 05:03:55;;;;;;;31.50;24.67;;;;;;;;;;5085314;28;20222;-54
2021/05/02 05:06:22;;;;;;;31.20;25.03;;;;;;;;;;5061371;28;20177;-56
2021/05/02 05:08:48;;;;;;;28.10;23.03;;;;;;;;;;5084457;28;20183;-53
2021/05/02 05:11:13;;;;;;;30.13;23.87;;;;;;;;;;5068319;28;20189;-54
2021/05/02 05:13:38;;;;;;;29.07;23.20;;;;;;;;;;5089306;28;20181;-55
2021/05/02 05:16:06;;;;;;;27.67;22.77;;;;;;;;;;5086576;28;20717;-54
2021/05/02 05:18:33;;;;;;;27.83;22.77;;;;;;;;;;5084661;28;20731;-54
2021/05/02 05:20:59;;;;;;;27.80;22.90;;;;;;;;;;5086893;28;20211;-53
2021/05/02 05:23:26;;;;;;;28.83;23.60;;;;;;;;;;5086463;28;20684;-55
2021/05/02 05:25:54;;;;;;;29.43;22.67;;;;;;;;;;5081750;28;20201;-54
2021/05/02 05:28:22;;;;;;;27.50;22.50;;;;;;;;;;5084023;28;20645;-54
2021/05/02 05:30:50;;;;;;;28.23;22.30;;;;;;;;;;5086769;28;20177;-53
2021/05/02 05:33:16;;;;;;;28.83;21.83;;;;;;;;;;5087727;28;20240;-52
2021/05/02 05:35:41;;;;;;;28.60;22.30;;;;;;;;;;5085221;28;20235;-53
2021/05/02 05:38:06;;;;;;;27.83;22.27;;;;;;;;;;5080400;28;20189;-52
2021/05/02 05:40:32;;;;;;;28.77;23.10;;;;;;;;;;5086358;28;20203;-54
2021/05/02 05:42:57;;;;;;;28.20;22.67;;;;;;;;;;5083225;28;20208;-54
2021/05/02 05:45:23;;;;;;;26.00;21.67;;;;;;;;;;5066377;28;20252;-54
2021/05/02 05:47:51;;;;;;;27.03;21.87;;;;;;;;;;5067477;28;20201;-54
2021/05/02 05:50:16;;;;;;;27.23;21.50;;;;;;;;;;5085636;28;20551;-52
2021/05/02 05:52:42;;;;;;;25.70;21.27;;;;;;;;;;5085100;28;20206;-55
2021/05/02 05:55:08;;;;;;;27.77;22.77;;;;;;;;;;5084412;28;20188;-52
2021/05/02 05:57:35;;;;;;;24.57;21.03;;;;;;;;;;5082263;28;20189;-53
2021/05/02 06:00:04;;;;;;;23.83;19.40;;;;;;;;;;5074972;28;20574;-54
2021/05/02 06:02:34;;;;;;;24.40;20.33;;;;;;;;;;5086314;28;20197;-52
2021/05/02 06:04:59;;;;;;;24.67;19.17;;;;;;;;;;5087288;28;20179;-54
2021/05/02 06:07:24;;;;;;;21.43;18.83;;;;;;;;;;5084786;28;20542;-53
2021/05/02 06:09:52;;;;;;;23.17;18.73;;;;;;;;;;5084208;28;20227;-54
2021/05/02 06:12:19;;;;;;;22.20;17.77;;;;;;;;;;5085211;28;20204;-55
2021/05/02 06:14:46;;;;;;;19.77;16.80;;;;;;;;;;5085066;28;20173;-54
2021/05/02 06:17:16;;;;;;;18.90;15.90;;;;;;;;;;5070678;28;20589;-54
2021/05/02 06:19:42;;;;;;;20.33;17.33;;;;;;;;;;5085353;28;20230;-54
2021/05/02 06:22:07;;;;;;;19.17;16.37;;;;;;;;;;5068243;28;20205;-55
2021/05/02 06:24:32;;;;;;;18.83;15.60;;;;;;;;;;5085861;28;20252;-54
2021/05/02 06:27:00;;;;;;;17.40;15.23;;;;;;;;;;5063920;28;20181;-54
2021/05/02 06:29:25;;;;;;;17.60;15.33;;;;;;;;;;5086524;28;20187;-54
2021/05/02 06:31:53;;;;;;;18.57;15.93;;;;;;;;;;5062646;28;20200;-54
2021/05/02 06:34:18;;;;;;;17.80;15.77;;;;;;;;;;5054668;28;20743;-51
2021/05/02 06:36:45;;;;;;;19.47;16.47;;;;;;;;;;5080113;28;20272;-53
2021/05/02 06:39:10;;;;;;;18.83;16.40;;;;;;;;;;5084297;28;20558;-53
2021/05/02 06:41:44;;;;;;;17.20;15.40;;;;;;;;;;5085328;28;20207;-51
2021/05/02 06:44:09;;;;;;;17.30;14.93;;;;;;;;;;5085682;28;20169;-52
2021/05/02 06:46:38;;;;;;;17.50;15.60;;;;;;;;;;5084103;28;20250;-52
2021/05/02 06:49:06;;;;;;;21.43;17.07;;;;;;;;;;5084976;28;20209;-51
2021/05/02 06:51:34;;;;;;;17.37;15.07;;;;;;;;;;5083998;28;20672;-52
2021/05/02 06:53:59;;;;;;;17.33;14.80;;;;;;;;;;5071787;28;20208;-52
2021/05/02 06:56:25;;;;;;;16.40;14.27;;;;;;;;;;5083780;28;20185;-51
2021/05/02 06:58:53;;;;;;;17.00;15.20;;;;;;;;;;5084391;28;20672;-52
2021/05/02 07:01:18;;;;;;;17.73;15.83;;;;;;;;;;5083413;28;20200;-53
2021/05/02 07:03:49;;;;;;;17.23;14.90;;;;;;;;;;5084811;28;20566;-53
2021/05/02 07:06:14;;;;;;;16.77;14.70;;;;;;;;;;5085694;28;20231;-53
2021/05/02 07:08:39;;;;;;;15.77;14.07;;;;;;;;;;5083141;28;20641;-52
2021/05/02 07:11:04;;;;;;;16.50;14.70;;;;;;;;;;5081800;28;21747;-50
2021/05/02 07:13:30;;;;;;;17.13;14.53;;;;;;;;;;5083860;28;20942;-49
2021/05/02 07:15:58;;;;;;;15.20;13.60;;;;;;;;;;5085297;28;20173;-52
2021/05/02 07:18:23;;;;;;;16.17;13.47;;;;;;;;;;5081830;28;20222;-52
2021/05/02 07:20:51;;;;;;;14.13;12.63;;;;;;;;;;5084085;28;20823;-53
2021/05/02 07:23:16;;;;;;;14.40;12.73;;;;;;;;;;5082936;28;20208;-52
2021/05/02 07:25:41;;;;;;;15.40;13.80;;;;;;;;;;5085817;28;20704;-53
2021/05/02 07:28:09;;;;;;;16.20;13.40;;;;;;;;;;5086161;28;20181;-52
2021/05/02 07:30:34;;;;;;;14.23;12.73;;;;;;;;;;5088417;28;20180;-52
2021/05/02 07:32:59;;;;;;;14.97;13.47;;;;;;;;;;5089144;28;20212;-53
2021/05/02 07:35:24;;;;;;;14.43;13.03;;;;;;;;;;5087676;28;20196;-54
2021/05/02 07:37:50;;;;;;;13.67;12.27;;;;;;;;;;5087431;28;20272;-54
2021/05/02 07:40:15;;;;;;;14.43;12.93;;;;;;;;;;5087760;28;20177;-55
2021/05/02 07:42:42;;;;;;;12.40;11.07;;;;;;;;;;5087456;28;20739;-53
2021/05/02 07:45:07;;;;;;;12.37;11.07;;;;;;;;;;5089668;28;20265;-53
2021/05/02 07:47:35;;;;;;;13.97;11.20;;;;;;;;;;5087290;28;20651;-53
2021/05/02 07:50:02;;;;;;;12.47;10.83;;;;;;;;;;5085817;28;20177;-53
2021/05/02 07:52:30;;;;;;;12.73;11.43;;;;;;;;;;5078552;28;20207;-54
2021/05/02 07:54:58;;;;;;;12.10;10.80;;;;;;;;;;5072512;28;20230;-52
2021/05/02 07:57:23;;;;;;;12.10;10.87;;;;;;;;;;5082796;28;20181;-53
2021/05/02 07:59:50;;;;;;;11.43;10.30;;;;;;;;;;5086832;28;20189;-53
2021/05/02 08:02:17;;;;;;;10.60;9.50;;;;;;;;;;5088063;28;20672;-53
2021/05/02 08:04:43;;;;;;;9.63;8.53;;;;;;;;;;5088935;28;20173;-52
2021/05/02 08:07:10;;;;;;;8.77;7.93;;;;;;;;;;5058670;28;20233;-54
2021/05/02 08:09:36;;;;;;;9.60;8.60;;;;;;;;;;5087582;28;20210;-54
2021/05/02 08:12:02;;;;;;;9.17;8.17;;;;;;;;;;5064359;28;20742;-53
2021/05/02 08:14:30;;;;;;;7.83;7.13;;;;;;;;;;5089497;28;20530;-53
2021/05/02 08:16:56;;;;;;;8.03;7.33;;;;;;;;;;5088152;28;20181;-54
2021/05/02 08:19:23;;;;;;;8.40;7.60;;;;;;;;;;5084632;28;20548;-52
2021/05/02 08:21:49;;;;;;;7.90;6.97;;;;;;;;;;5089252;28;20323;-52
2021/05/02 08:24:14;;;;;;;9.37;8.37;;;;;;;;;;5088220;28;20622;-54
2021/05/02 08:26:40;;;;;;;8.83;8.03;;;;;;;;;;5086764;28;20195;-55
2021/05/02 08:29:05;;;;;;;9.70;8.40;;;;;;;;;;5085414;28;20169;-53
2021/05/02 08:31:33;;;;;;;9.10;8.27;;;;;;;;;;5087080;28;20302;-54
2021/05/02 08:34:00;;;;;;;9.27;8.40;;;;;;;;;;5069122;28;20667;-54
2021/05/02 08:36:28;;;;;;;9.60;8.70;;;;;;;;;;5085874;28;20674;-52
2021/05/02 08:38:53;;;;;;;8.83;8.03;;;;;;;;;;5087042;28;20673;-54
2021/05/02 08:41:18;;;;;;;8.40;7.57;;;;;;;;;;5086778;28;20238;-51
2021/05/02 08:43:49;;;;;;;7.83;7.00;;;;;;;;;;5088464;28;20161;-53
2021/05/02 08:46:17;;;;;;;7.57;6.77;;;;;;;;;;5085738;28;20185;-53
2021/05/02 08:48:44;;;;;;;7.37;6.67;;;;;;;;;;5085285;28;20259;-53
2021/05/02 08:51:11;;;;;;;6.40;5.80;;;;;;;;;;5083423;28;20181;-52
2021/05/02 08:53:39;;;;;;;6.10;5.50;;;;;;;;;;5085172;28;20177;-53
2021/05/02 08:56:04;;;;;;;7.13;6.43;;;;;;;;;;5087236;28;20185;-51
2021/05/02 08:58:29;;;;;;;7.07;6.37;;;;;;;;;;5067981;28;20191;-52
2021/05/02 09:00:57;;;;;;;6.80;6.20;;;;;;;;;;5086074;28;20269;-52
2021/05/02 09:03:43;;;;;;;6.77;6.07;;;;;;;;;;5085351;28;20228;-53
2021/05/02 09:06:24;;;;;;;7.13;6.53;;;;;;;;;;5087190;28;20755;-52
2021/05/02 09:08:50;;;;;;;7.43;6.80;;;;;;;;;;5086073;28;20728;-53
2021/05/02 09:11:18;;;;;;;8.60;5.87;;;;;;;;;;5085221;28;20259;-51
2021/05/02 09:13:51;;;;;;;6.73;6.13;;;;;;;;;;5084170;28;20190;-52
2021/05/02 09:16:21;;;;;;;5.90;5.40;;;;;;;;;;5051705;28;20189;-52
2021/05/02 09:18:50;;;;;;;5.83;5.07;;;;;;;;;;5086097;28;20239;-53
2021/05/02 09:21:21;;;;;;;6.20;5.70;;;;;;;;;;5085066;28;20183;-50
2021/05/02 09:23:48;;;;;;;6.67;6.07;;;;;;;;;;5085581;28;20173;-53
2021/05/02 09:26:17;;;;;;;6.23;5.50;;;;;;;;;;5083913;28;20697;-52
2021/05/02 09:28:44;;;;;;;6.30;5.60;;;;;;;;;;5086660;28;20185;-49
2021/05/02 09:31:10;;;;;;;5.23;4.73;;;;;;;;;;5067966;28;20180;-52
2021/05/02 09:33:38;;;;;;;5.83;5.23;;;;;;;;;;5084787;28;20181;-52
2021/05/02 09:36:08;;;;;;;7.13;6.27;;;;;;;;;;5068943;28;20271;-51
2021/05/02 09:38:33;;;;;;;7.00;6.20;;;;;;;;;;5068514;28;20217;-53
2021/05/02 09:41:00;;;;;;;7.97;6.87;;;;;;;;;;5087125;28;20188;-51
2021/05/02 09:43:31;;;;;;;7.37;6.40;;;;;;;;;;5081213;28;20208;-52
2021/05/02 09:46:40;;;;;;;7.43;5.20;;;;;;;;;;5084428;28;20184;-53
2021/05/02 09:49:11;;;;;;;6.57;5.97;;;;;;;;;;5072483;28;20196;-51
2021/05/02 09:51:54;;;;;;;7.28;6.57;;;;;;;;;;5083842;28;20228;-51
2021/05/02 09:54:22;;;;;;;6.78;6.05;;;;;;;;;;5086500;28;20195;-52
2021/05/02 09:56:49;;;;;;;9.63;6.10;;;;;;;;;;5085826;28;20188;-52
2021/05/02 09:59:21;;;;;;;7.28;6.32;;;;;;;;;;5065476;28;20177;-53
2021/05/02 10:02:07;;;;;;;7.00;6.25;;;;;;;;;;5084485;28;20645;-53
2021/05/02 10:04:32;;;;;;;7.20;6.50;;;;;;;;;;5085407;28;20184;-52
2021/05/02 10:06:59;;;;;;;7.40;6.70;;;;;;;;;;5084229;28;20180;-51
2021/05/02 10:09:25;;;;;;;7.33;6.53;;;;;;;;;;5085978;28;20255;-51
2021/05/02 10:11:50;;;;;;;6.23;5.63;;;;;;;;;;5082914;28;20292;-53
2021/05/02 10:14:18;;;;;;;6.33;5.73;;;;;;;;;;5084671;28;20209;-54
2021/05/02 10:16:43;;;;;;;7.63;6.05;;;;;;;;;;5079684;28;20214;-52
2021/05/02 10:19:09;;;;;;;6.90;6.00;;;;;;;;;;5084994;28;20549;-53
2021/05/02 10:21:36;;;;;;;8.93;6.93;;;;;;;;;;5084266;28;20204;-54
2021/05/02 10:24:03;;;;;;;7.20;6.43;;;;;;;;;;5082227;28;20603;-54
2021/05/02 10:26:28;;;;;;;8.03;6.53;;;;;;;;;;5090111;22;20747;-55
2021/05/02 10:28:53;;;;;;;8.20;7.40;;;;;;;;;;5079992;28;20186;-54
2021/05/02 10:31:27;;;;;;;7.00;6.30;;;;;;;;;;5079704;28;20225;-55
2021/05/02 10:33:54;;;;;;;7.37;6.67;;;;;;;;;;5076066;28;20193;-54
2021/05/02 10:36:25;;;;;;;8.63;7.20;;;;;;;;;;5074133;28;21032;-52
2021/05/02 10:39:01;;;;;;;8.00;6.70;;;;;;;;;;5072323;28;20184;-53
2021/05/02 10:41:28;;;;;;;8.07;6.20;;;;;;;;;;5073745;28;20230;-52
2021/05/02 10:43:55;;;;;;;8.13;7.17;;;;;;;;;;5072811;28;20323;-52
2021/05/02 10:46:39;;;;;;;7.70;6.90;;;;;;;;;;5066430;28;20254;-53
2021/05/02 10:49:06;;;;;;;8.43;7.53;;;;;;;;;;5072917;28;20177;-53
2021/05/02 10:51:34;;;;;;;7.17;6.43;;;;;;;;;;5068160;28;20189;-52
2021/05/02 10:54:08;;;;;;;7.13;6.10;;;;;;;;;;5077975;28;20234;-54
2021/05/02 10:56:40;;;;;;;9.63;6.80;;;;;;;;;;5072083;28;20574;-55
2021/05/02 10:59:07;;;;;;;8.13;7.23;;;;;;;;;;5074425;28;20191;-54
2021/05/02 11:01:35;;;;;;;7.67;6.97;;;;;;;;;;5073454;28;20197;-54
2021/05/02 11:04:00;;;;;;;8.73;6.73;;;;;;;;;;5074144;28;20759;-53
2021/05/02 11:06:43;;;;;;;10.83;7.97;;;;;;;;;;5079414;28;20218;-54
2021/05/02 11:09:13;;;;;;;11.63;7.97;;;;;;;;;;5078862;28;20179;-54
2021/05/02 11:11:43;;;;;;;10.13;8.13;;;;;;;;;;5067582;28;20625;-52
2021/05/02 11:16:39;;;;;;;8.43;7.30;;;;;;;;;;5076513;28;20618;-54
2021/05/02 11:19:07;;;;;;;8.13;6.30;;;;;;;;;;5076595;28;20506;-54
2021/05/02 11:21:57;;;;;;;6.27;5.67;;;;;;;;;;5075790;28;20642;-53
2021/05/02 11:24:26;;;;;;;5.07;4.57;;;;;;;;;;5067891;28;20177;-55
2021/05/02 11:26:58;;;;;;;7.13;4.43;;;;;;;;;;5073474;28;20296;-54
2021/05/02 11:29:25;;;;;;;5.70;4.43;;;;;;;;;;5063570;28;20172;-54
2021/05/02 11:31:50;;;;;;;5.83;4.53;;;;;;;;;;5078569;28;20239;-54
2021/05/02 11:34:18;;;;;;;7.20;5.03;;;;;;;;;;5075059;28;20802;-53
2021/05/02 11:36:45;;;;;;;7.33;5.67;;;;;;;;;;5075342;28;20201;-54
2021/05/02 11:39:41;;;;;;;6.13;5.50;;;;;;;;;;5072524;28;20182;-54
2021/05/02 11:42:09;;;;;;;7.20;5.80;;;;;;;;;;5075218;28;20716;-54
2021/05/02 11:44:35;;;;;;;5.70;4.50;;;;;;;;;;5072400;28;20207;-54
2021/05/02 11:47:10;;;;;;;4.00;3.60;;;;;;;;;;5074319;28;20243;-55
2021/05/02 11:49:35;;;;;;;5.77;4.20;;;;;;;;;;5075797;28;20557;-54
2021/05/02 11:52:03;;;;;;;7.73;6.80;;;;;;;;;;5075876;28;20181;-55
2021/05/02 11:54:30;;;;;;;9.43;7.47;;;;;;;;;;5072192;28;20202;-54
2021/05/02 11:56:56;;;;;;;11.33;7.47;;;;;;;;;;5067653;28;20231;-54
2021/05/02 11:59:21;;;;;;;7.83;6.30;;;;;;;;;;5075902;28;20200;-54
2021/05/02 12:01:47;;;;;;;6.77;5.23;;;;;;;;;;5071345;28;20285;-51
2021/05/02 12:04:14;;;;;;;5.53;4.60;;;;;;;;;;5088377;28;20180;-55
2021/05/02 12:06:39;;;;;;;6.80;4.67;;;;;;;;;;5080815;28;20197;-52
2021/05/02 12:09:31;;;;;;;4.00;3.60;;;;;;;;;;5062068;28;20638;-52
2021/05/02 12:11:59;;;;;;;4.00;3.60;;;;;;;;;;5085132;28;20204;-52
2021/05/02 12:14:28;;;;;;;4.30;3.77;;;;;;;;;;5085666;28;20203;-51
2021/05/02 12:16:58;;;;;;;5.43;3.93;;;;;;;;;;5082875;28;20208;-52
2021/05/02 12:19:23;;;;;;;7.23;5.10;;;;;;;;;;5068227;28;20272;-53
2021/05/02 12:21:50;;;;;;;6.60;5.27;;;;;;;;;;5067849;28;20425;-51
2021/05/02 12:24:17;;;;;;;9.80;6.20;;;;;;;;;;5066053;28;20188;-51
2021/05/02 12:26:55;;;;;;;13.57;6.87;;;;;;;;;;5089393;28;20213;-52
2021/05/02 12:29:28;;;;;;;10.27;7.50;;;;;;;;;;5068506;28;20227;-51
2021/05/02 12:32:00;;;;;;;10.77;8.30;;;;;;;;;;5087002;28;20195;-51
2021/05/02 12:34:27;;;;;;;11.40;8.77;;;;;;;;;;5083797;28;20243;-51
2021/05/02 12:36:53;;;;;;;9.87;7.63;;;;;;;;;;5081371;28;20208;-51
2021/05/02 12:39:19;;;;;;;12.07;7.37;;;;;;;;;;5084615;28;20184;-50
2021/05/02 12:41:50;;;;;;;13.23;8.00;;;;;;;;;;5083365;28;20296;-51
2021/05/02 12:44:18;;;;;;;8.70;7.27;;;;;;;;;;5083057;28;20177;-50
2021/05/02 12:46:48;;;;;;;8.00;7.03;;;;;;;;;;5083782;28;20257;-50
2021/05/02 12:49:16;;;;;;;7.83;6.53;;;;;;;;;;5080562;28;20181;-51
2021/05/02 12:51:44;;;;;;;7.67;6.50;;;;;;;;;;5079634;28;20207;-50
2021/05/02 12:54:10;;;;;;;8.93;6.00;;;;;;;;;;5066600;28;20200;-51
2021/05/02 12:56:41;;;;;;;11.13;6.70;;;;;;;;;;5082961;28;20206;-51
2021/05/02 12:59:27;;;;;;;8.37;6.23;;;;;;;;;;5079208;28;20674;-52
2021/05/02 13:02:05;;;;;;;7.43;6.33;;;;;;;;;;5076585;28;20208;-51
2021/05/02 13:04:51;;;;;;;8.67;6.17;;;;;;;;;;5082274;28;20233;-51
2021/05/02 13:07:28;;;;;;;7.13;6.20;;;;;;;;;;5083287;28;20230;-50
2021/05/02 13:09:53;;;;;;;11.27;6.10;;;;;;;;;;5080897;28;20234;-55
2021/05/02 13:12:21;;;;;;;8.10;6.30;;;;;;;;;;5083908;28;20858;-52
2021/05/02 13:15:03;;;;;;;7.37;6.00;;;;;;;;;;5083367;28;20180;-50
2021/05/02 13:17:28;;;;;;;7.90;6.23;;;;;;;;;;5076656;28;20196;-51
2021/05/02 13:19:57;;;;;;;6.17;5.23;;;;;;;;;;5079479;28;20814;-51
2021/05/02 13:22:24;;;;;;;7.47;5.83;;;;;;;;;;5082729;28;20196;-54
2021/05/02 13:25:04;;;;;;;7.40;6.03;;;;;;;;;;5079499;28;20676;-54
2021/05/02 13:27:35;;;;;;;8.07;5.97;;;;;;;;;;5064707;28;20204;-53
2021/05/02 13:30:01;;;;;;;9.27;5.97;;;;;;;;;;5084979;28;20177;-53
2021/05/02 13:32:26;;;;;;;7.00;5.77;;;;;;;;;;5084793;28;20183;-53
2021/05/02 13:34:53;;;;;;;5.73;5.03;;;;;;;;;;5085440;28;20192;-53
2021/05/02 13:37:19;;;;;;;5.10;4.27;;;;;;;;;;5073725;28;20280;-51
2021/05/02 13:39:44;;;;;;;5.83;4.30;;;;;;;;;;5088517;28;20295;-52
2021/05/02 13:42:11;;;;;;;5.73;4.27;;;;;;;;;;5086550;28;20208;-51
2021/05/02 13:44:41;;;;;;;7.07;4.00;;;;;;;;;;5083202;28;20260;-51
2021/05/02 13:47:08;;;;;;;4.87;4.30;;;;;;;;;;5085153;28;20253;-54
2021/05/02 13:49:38;;;;;;;4.43;4.03;;;;;;;;;;5085343;28;20222;-53
2021/05/02 13:52:03;;;;;;;5.20;3.10;;;;;;;;;;5069258;28;20195;-51
2021/05/02 13:54:29;;;;;;;4.07;3.10;;;;;;;;;;5069541;28;20184;-55
2021/05/02 13:56:55;;;;;;;4.77;2.93;;;;;;;;;;5086408;28;20261;-53
2021/05/02 13:59:23;;;;;;;4.00;3.40;;;;;;;;;;5081445;28;20590;-51
2021/05/02 14:01:50;;;;;;;4.60;3.40;;;;;;;;;;5086775;28;20267;-53
2021/05/02 14:04:18;;;;;;;5.90;4.10;;;;;;;;;;5077921;28;20709;-50
2021/05/02 14:06:48;;;;;;;4.60;3.03;;;;;;;;;;5075151;28;20231;-52
2021/05/02 14:09:15;;;;;;;3.53;2.60;;;;;;;;;;5075733;28;20703;-52
2021/05/02 14:11:40;;;;;;;3.50;2.80;;;;;;;;;;5081069;28;20879;-54
2021/05/02 14:14:05;;;;;;;5.03;2.80;;;;;;;;;;5086751;28;20204;-53
2021/05/02 14:16:33;;;;;;;4.70;2.43;;;;;;;;;;5083989;28;20299;-53
2021/05/02 14:19:00;;;;;;;3.57;2.47;;;;;;;;;;5084687;28;20189;-50
2021/05/02 14:21:27;;;;;;;7.33;2.90;;;;;;;;;;5085292;28;20181;-52
2021/05/02 14:23:53;;;;;;;3.80;2.60;;;;;;;;;;5085836;28;20243;-50
2021/05/02 14:26:23;;;;;;;2.47;1.93;;;;;;;;;;5083173;28;20200;-52
2021/05/02 14:28:50;;;;;;;3.13;2.23;;;;;;;;;;5085448;28;20176;-53
2021/05/02 14:31:18;;;;;;;3.10;2.23;;;;;;;;;;5072998;28;20175;-54
2021/05/02 14:33:43;;;;;;;2.13;1.80;;;;;;;;;;5085979;28;20234;-53
2021/05/02 14:36:11;;;;;;;5.87;1.97;;;;;;;;;;5084364;28;20205;-52
2021/05/02 14:38:39;;;;;;;3.20;1.97;;;;;;;;;;5087505;28;20185;-53